Terminal Aerodrome Forecast
Issued by NWS Nashville, TN

Home | Current Version | Previous Version | Text Only | Print | Product List | Glossary On
Versions: 1 2 3 4 5 6 7 8 9 10 11 12 13 14 15 16 17 18 19 20
000
FTUS44 KOHX 290611 AAA
TAFBNA
TAF AMD
KBNA 290611Z 2906/3006 20003KT 5SM BR OVC010
      TEMPO 2908/2912 3SM BR SCT004 OVC007
     FM291600 24006KT P6SM BKN050=

USA.gov is the U.S. government's official web portal to all federal, state and local government web resources and services.